Muscat, Oman
Current Conditions -  °F | °C
As of 12:50 PM on Friday 24 Oct 2014 (Local Time) from OOMS Reporting Station
Few Clouds Few Clouds  
Wind Chill: 90°   Ceiling: Unl
Heat Index: 102°   Visibility: 6mi
Dew Point: 77°   Wind: 9mph
Humidity: 66%   Direction: 20°NNE
Pressure: 29.85"   Gusts: NA
Location:  23.61°N, 58.54°E
Report Text: OOMS 240850Z 02008KT 330V060 9999 FEW025 32/25 Q1011 NOSIG
Loading
Personal Weather Stations






























Interactive Weather Map New forecast layout! Learn more

10-Day Weather Forecast

Advertisements
Track Severe Weather on mobile